createdAt,value
2023-02-01T00:01:39.024Z,101964.56
2023-02-01T00:04:05.391Z,101959.91
2023-02-01T00:06:31.752Z,101973.13
2023-02-01T00:08:59.119Z,101974.66
2023-02-01T00:11:25.528Z,101981.63
2023-02-01T00:13:51.910Z,101977.81
2023-02-01T00:16:18.352Z,101971.19
2023-02-01T00:18:44.751Z,101968.47
2023-02-01T00:21:11.110Z,101966.94
2023-02-01T00:23:37.475Z,101961.47
2023-02-01T00:26:03.840Z,101961.84
2023-02-01T00:28:30.225Z,101941.28
2023-02-01T00:30:56.661Z,101950.22
2023-02-01T00:33:23.189Z,101948.25
2023-02-01T00:35:49.596Z,101939.34
2023-02-01T00:38:15.991Z,101945.16
2023-02-01T00:40:42.338Z,101945.16
2023-02-01T00:43:08.709Z,101950.59
2023-02-01T00:45:35.070Z,101945.53
2023-02-01T00:48:01.574Z,101958.78
2023-02-01T00:50:27.927Z,101949.81
2023-02-01T00:52:54.302Z,101943.59
2023-02-01T00:55:20.686Z,101941.28
2023-02-01T00:57:47.048Z,101940.09
2023-02-01T01:00:13.549Z,101945.19
2023-02-01T01:02:39.912Z,101952.16
2023-02-01T01:05:06.264Z,101956.03
2023-02-01T01:07:32.622Z,101951.34
2023-02-01T01:09:58.978Z,101964.22
2023-02-01T01:12:25.370Z,101961.44
2023-02-01T01:14:51.785Z,101966.50
2023-02-01T01:17:18.150Z,101961.47
2023-02-01T01:19:44.499Z,101964.22
2023-02-01T01:22:10.849Z,101958.78
2023-02-01T01:24:37.218Z,101964.22
2023-02-01T01:27:03.610Z,101971.56
2023-02-01T01:29:29.971Z,101966.94
2023-02-01T01:31:56.414Z,101973.50
2023-02-01T01:34:22.819Z,101959.50
2023-02-01T01:36:49.187Z,101967.28
2023-02-01T01:39:15.545Z,101979.34
2023-02-01T01:41:41.913Z,101976.25
2023-02-01T01:44:08.283Z,101977.38
2023-02-01T01:46:34.648Z,101975.84
2023-02-01T01:49:01.000Z,101977.38
2023-02-01T01:51:27.390Z,101982.44
2023-02-01T01:53:53.757Z,101974.28
2023-02-01T01:56:20.124Z,101976.59
2023-02-01T01:58:46.476Z,101982.03
2023-02-01T02:01:12.871Z,101968.06
2023-02-01T02:03:39.267Z,101980.50
2023-02-01T02:06:05.628Z,101985.16
2023-02-01T02:08:31.984Z,101983.19
2023-02-01T02:10:58.347Z,101988.25
2023-02-01T02:13:24.689Z,101982.81
2023-02-01T02:15:51.060Z,101974.66
2023-02-01T02:18:17.423Z,101979.34
2023-02-01T02:20:43.789Z,101971.94
2023-02-01T02:23:10.148Z,101968.03
2023-02-01T02:25:36.508Z,101985.94
2023-02-01T02:28:02.879Z,101973.53
2023-02-01T02:30:29.366Z,101980.88
2023-02-01T02:32:55.739Z,101970.41
2023-02-01T02:35:22.109Z,101979.31
2023-02-01T02:37:48.489Z,101969.66
2023-02-01T02:40:14.846Z,101964.56
2023-02-01T02:42:41.215Z,101959.91
2023-02-01T02:45:07.581Z,101957.19
2023-02-01T02:47:33.929Z,101952.94
2023-02-01T02:50:00.305Z,101953.69
2023-02-01T02:52:26.655Z,101956.06
2023-02-01T02:54:53.064Z,101968.47
2023-02-01T02:57:19.459Z,101976.25
2023-02-01T02:59:45.816Z,101974.72
2023-02-01T03:02:12.183Z,101980.94
2023-02-01T03:04:38.547Z,101976.22
2023-02-01T03:07:04.905Z,101985.97
2023-02-01T03:09:31.260Z,101979.31
2023-02-01T03:11:57.734Z,101975.44
2023-02-01T03:14:24.095Z,101978.16
2023-02-01T03:16:50.532Z,101972.34
2023-02-01T03:19:16.981Z,101977.03
2023-02-01T03:21:43.335Z,101974.66
2023-02-01T03:24:09.719Z,101989.03
2023-02-01T03:26:36.111Z,101983.59
2023-02-01T03:29:02.500Z,101971.56
2023-02-01T03:31:28.920Z,101976.22
2023-02-01T03:33:55.311Z,101975.44
2023-02-01T03:36:21.663Z,101971.63
2023-02-01T03:38:48.029Z,101976.59
2023-02-01T03:41:14.385Z,101982.03
2023-02-01T03:43:40.741Z,101982.47
2023-02-01T03:46:07.148Z,101979.34
2023-02-01T03:48:33.535Z,101980.09
2023-02-01T03:50:59.911Z,101987.91
2023-02-01T03:53:26.273Z,101977.06
2023-02-01T03:55:52.704Z,101972.75
2023-02-01T03:58:19.074Z,101969.66
2023-02-01T04:00:45.429Z,101975.84
2023-02-01T04:03:11.803Z,101977.38
2023-02-01T04:05:38.186Z,101984.00
2023-02-01T04:08:04.552Z,101987.91
2023-02-01T04:10:30.925Z,101977.41
2023-02-01T04:12:57.311Z,101977.03
2023-02-01T04:15:23.672Z,101973.91
2023-02-01T04:17:50.044Z,101969.25
2023-02-01T04:20:16.435Z,101976.63
2023-02-01T04:22:42.804Z,101973.53
2023-02-01T04:25:09.168Z,101976.19
2023-02-01T04:27:35.619Z,101978.53
2023-02-01T04:30:02.000Z,101980.53
2023-02-01T04:32:28.401Z,101980.88
2023-02-01T04:34:54.777Z,101979.72
2023-02-01T04:37:21.137Z,101988.25
2023-02-01T04:39:47.494Z,101989.41
2023-02-01T04:42:13.871Z,101976.59
2023-02-01T04:44:40.265Z,101975.47
2023-02-01T04:47:06.636Z,101982.84
2023-02-01T04:49:33.023Z,101976.25
2023-02-01T04:51:59.424Z,101981.72
2023-02-01T04:54:25.768Z,101975.09
2023-02-01T04:56:52.141Z,101984.78
2023-02-01T04:59:18.521Z,101987.16
2023-02-01T05:01:45.419Z,101991.00
2023-02-01T05:04:12.785Z,101998.78
2023-02-01T05:06:39.165Z,102006.56
2023-02-01T05:09:05.526Z,102002.66
2023-02-01T05:11:31.927Z,102003.81
2023-02-01T05:13:58.316Z,102007.31
2023-02-01T05:16:24.671Z,102002.66
2023-02-01T05:18:51.042Z,102003.44
2023-02-01T05:21:17.420Z,102004.22
2023-02-01T05:23:43.765Z,102003.06
2023-02-01T05:26:10.146Z,102008.47
2023-02-01T05:28:36.506Z,102011.97
2023-02-01T05:31:02.967Z,102004.22
2023-02-01T05:33:29.385Z,102009.66
2023-02-01T05:35:55.730Z,102008.88
2023-02-01T05:38:22.086Z,102012.69
2023-02-01T05:40:48.475Z,102027.50
2023-02-01T05:43:14.894Z,102020.88
2023-02-01T05:45:41.251Z,102024.38
2023-02-01T05:48:07.624Z,102017.41
2023-02-01T05:50:34.009Z,102022.44
2023-02-01T05:53:00.380Z,102021.28
2023-02-01T05:55:26.743Z,102015.44
2023-02-01T05:57:53.134Z,102020.53
2023-02-01T06:00:21.417Z,102022.47
2023-02-01T06:02:48.682Z,102013.50
2023-02-01T06:05:15.073Z,102012.38
2023-02-01T06:07:41.464Z,102015.09
2023-02-01T06:10:07.824Z,102015.06
2023-02-01T06:12:34.204Z,102010.41
2023-02-01T06:15:00.583Z,102026.34
2023-02-01T06:17:26.951Z,102027.13
2023-02-01T06:19:53.308Z,102021.28
2023-02-01T06:22:19.690Z,102022.06
2023-02-01T06:24:46.029Z,102028.28
2023-02-01T06:27:12.372Z,102020.50
2023-02-01T06:29:38.731Z,102025.16
2023-02-01T06:32:06.204Z,102020.13
2023-02-01T06:34:32.598Z,102019.34
2023-02-01T06:36:58.966Z,102024.41
2023-02-01T06:39:25.322Z,102027.53
2023-02-01T06:41:51.701Z,102023.22
2023-02-01T06:44:18.060Z,102023.63
2023-02-01T06:46:44.531Z,102033.28
2023-02-01T06:49:10.948Z,102030.59
2023-02-01T06:51:37.296Z,102030.59
2023-02-01T06:54:03.673Z,102025.94
2023-02-01T06:56:30.049Z,102043.00
2023-02-01T06:58:56.429Z,102033.66
2023-02-01T07:01:22.783Z,102040.69
2023-02-01T07:03:49.140Z,102038.34
2023-02-01T07:06:15.503Z,102043.41
2023-02-01T07:08:41.877Z,102044.19
2023-02-01T07:11:08.258Z,102040.69
2023-02-01T07:13:34.613Z,102031.38
2023-02-01T07:16:01.036Z,102026.72
2023-02-01T07:18:27.412Z,102043.81
2023-02-01T07:20:53.770Z,102064.00
2023-02-01T07:23:20.214Z,102062.84
2023-02-01T07:25:46.606Z,102071.38
2023-02-01T07:28:12.992Z,102074.09
2023-02-01T07:30:39.420Z,102069.44
2023-02-01T07:33:05.790Z,102067.09
2023-02-01T07:35:32.149Z,102079.13
2023-02-01T07:37:58.500Z,102081.06
2023-02-01T07:40:25.191Z,102084.97
2023-02-01T07:42:51.732Z,102089.59
2023-02-01T07:45:21.313Z,102096.16
2023-02-01T07:47:48.016Z,102095.41
2023-02-01T07:50:14.408Z,102112.91
2023-02-01T07:52:40.764Z,102110.56
2023-02-01T07:55:07.120Z,102118.31
2023-02-01T07:57:33.479Z,102122.56
2023-02-01T07:59:59.823Z,102115.19
2023-02-01T08:02:26.223Z,102115.59
2023-02-01T08:04:52.696Z,102124.53
2023-02-01T08:07:19.043Z,102120.66
2023-02-01T08:09:45.393Z,102116.41
2023-02-01T08:12:11.768Z,102112.47
2023-02-01T08:14:38.136Z,102109.75
2023-02-01T08:17:04.520Z,102107.81
2023-02-01T08:19:30.882Z,102111.31
2023-02-01T08:21:57.265Z,102103.91
2023-02-01T08:24:23.652Z,102103.91
2023-02-01T08:26:50.027Z,102102.72
2023-02-01T08:29:16.415Z,102108.56
2023-02-01T08:31:42.830Z,102092.56
2023-02-01T08:34:09.234Z,102098.00
2023-02-01T08:36:35.575Z,102095.22
2023-02-01T08:39:01.972Z,102092.56
2023-02-01T08:41:28.337Z,102090.16
2023-02-01T08:43:54.724Z,102078.84
2023-02-01T08:46:21.150Z,102070.59
2023-02-01T08:48:47.557Z,102076.97
2023-02-01T08:51:13.924Z,102068.84
2023-02-01T08:53:40.294Z,102065.41
2023-02-01T08:56:06.671Z,102063.47
2023-02-01T08:58:33.021Z,102065.44
2023-02-01T09:00:59.420Z,102070.88
2023-02-01T09:03:25.800Z,102068.56
2023-02-01T09:05:54.265Z,102069.72
2023-02-01T09:08:20.788Z,102076.72
2023-02-01T09:10:47.159Z,102075.53
2023-02-01T09:13:13.543Z,102078.66
2023-02-01T09:15:39.926Z,102087.19
2023-02-01T09:18:06.308Z,102084.91
2023-02-01T09:20:32.853Z,102088.75
2023-02-01T09:22:59.205Z,102094.19
2023-02-01T09:25:25.636Z,102100.41
2023-02-01T09:27:52.252Z,102105.44
2023-02-01T09:30:18.619Z,102115.16
2023-02-01T09:32:44.983Z,102126.81
2023-02-01T09:35:11.367Z,102129.91
2023-02-01T09:37:37.725Z,102130.69
2023-02-01T09:40:04.102Z,102133.41
2023-02-01T09:42:31.134Z,102141.97
2023-02-01T09:44:57.543Z,102143.53
2023-02-01T09:47:23.904Z,102140.06
2023-02-01T09:49:50.303Z,102143.94
2023-02-01T09:52:16.681Z,102143.94
2023-02-01T09:54:43.082Z,102144.31
2023-02-01T09:57:09.476Z,102154.03
2023-02-01T09:59:35.923Z,102149.00
2023-02-01T10:02:02.295Z,102141.59
2023-02-01T10:04:28.663Z,102142.38
2023-02-01T10:06:55.031Z,102148.22
2023-02-01T10:09:21.505Z,102146.25
2023-02-01T10:11:47.845Z,102141.19
2023-02-01T10:14:14.208Z,102135.34
2023-02-01T10:16:40.725Z,102135.75
2023-02-01T10:19:07.264Z,102141.19
2023-02-01T10:21:33.619Z,102129.91
2023-02-01T10:24:03.613Z,102133.75
2023-02-01T10:26:35.520Z,102143.88
2023-02-01T10:29:01.911Z,102140.38
2023-02-01T10:31:28.378Z,102144.63
2023-02-01T10:33:54.820Z,102147.00
2023-02-01T10:36:21.170Z,102147.75
2023-02-01T10:38:47.535Z,102138.44
2023-02-01T10:41:13.916Z,102148.56
2023-02-01T10:43:40.359Z,102136.06
2023-02-01T10:46:06.776Z,102131.44
2023-02-01T10:48:33.152Z,102134.16
2023-02-01T10:50:59.522Z,102134.59
2023-02-01T10:53:25.940Z,102127.59
2023-02-01T10:55:52.325Z,102125.28
2023-02-01T10:58:18.685Z,102122.16
2023-02-01T11:00:45.070Z,102119.78
2023-02-01T11:03:11.450Z,102124.88
2023-02-01T11:05:37.848Z,102117.88
2023-02-01T11:08:04.213Z,102117.47
2023-02-01T11:10:30.573Z,102117.09
2023-02-01T11:12:56.954Z,102116.66
2023-02-01T11:15:23.795Z,102108.56
2023-02-01T11:17:50.421Z,102121.00
2023-02-01T11:20:16.813Z,102114.78
2023-02-01T11:22:43.344Z,102114.31
2023-02-01T11:25:09.690Z,102113.16
2023-02-01T11:27:40.357Z,102112.03
2023-02-01T11:30:09.555Z,102116.66
2023-02-01T11:32:35.957Z,102124.38
2023-02-01T11:35:02.343Z,102126.00
2023-02-01T11:37:28.714Z,102111.22
2023-02-01T11:39:55.086Z,102120.19
2023-02-01T11:42:21.447Z,102116.69
2023-02-01T11:44:47.833Z,102119.75
2023-02-01T11:47:14.191Z,102111.22
2023-02-01T11:49:40.587Z,102110.84
2023-02-01T11:52:06.954Z,102100.41
2023-02-01T11:54:33.325Z,102111.66
2023-02-01T11:56:59.690Z,102097.28
2023-02-01T11:59:26.056Z,102094.50
2023-02-01T12:01:52.465Z,102087.94
2023-02-01T12:04:18.861Z,102085.63
2023-02-01T12:06:45.254Z,102087.19
2023-02-01T12:09:11.614Z,102078.66
2023-02-01T12:11:37.968Z,102063.13
2023-02-01T12:14:04.332Z,102061.53
2023-02-01T12:16:30.817Z,102049.13
2023-02-01T12:18:57.229Z,102048.28
2023-02-01T12:21:23.596Z,102047.06
2023-02-01T12:23:49.950Z,102043.13
2023-02-01T12:26:17.914Z,102045.09
2023-02-01T12:28:44.921Z,102052.50
2023-02-01T12:31:11.493Z,102050.94
2023-02-01T12:33:37.883Z,102046.25
2023-02-01T12:36:04.261Z,102057.59
2023-02-01T12:38:30.634Z,102049.81
2023-02-01T12:40:57.013Z,102059.56
2023-02-01T12:43:23.378Z,102046.81
2023-02-01T12:45:49.754Z,102049.88
2023-02-01T12:48:16.137Z,102046.78
2023-02-01T12:50:42.494Z,102048.28
2023-02-01T12:53:08.899Z,102039.41
2023-02-01T12:55:35.288Z,102041.66
2023-02-01T12:58:01.794Z,102041.75
2023-02-01T13:00:28.188Z,102022.72
2023-02-01T13:02:54.544Z,102020.78
2023-02-01T13:05:20.898Z,102016.09
2023-02-01T13:07:47.275Z,102019.56
2023-02-01T13:10:13.677Z,102017.28
2023-02-01T13:12:40.059Z,102016.06
2023-02-01T13:15:06.428Z,102016.50
2023-02-01T13:17:32.808Z,102011.06
2023-02-01T13:19:59.190Z,102012.25
2023-02-01T13:22:25.543Z,102009.09
2023-02-01T13:24:51.916Z,102000.56
2023-02-01T13:27:18.284Z,101999.31
2023-02-01T13:29:44.666Z,102002.47
2023-02-01T13:32:11.018Z,102002.47
2023-02-01T13:34:38.053Z,101998.97
2023-02-01T13:37:04.420Z,102002.53
2023-02-01T13:39:30.783Z,101997.09
2023-02-01T13:41:57.175Z,101995.91
2023-02-01T13:44:23.542Z,101990.06
2023-02-01T13:46:51.842Z,101990.50
2023-02-01T13:49:18.839Z,101996.69
2023-02-01T13:51:45.229Z,101995.94
2023-02-01T13:54:11.596Z,101989.28
2023-02-01T13:56:38.008Z,101985.41
2023-02-01T13:59:04.389Z,101982.31
2023-02-01T14:01:30.775Z,101987.75
2023-02-01T14:03:57.183Z,101989.28
2023-02-01T14:06:23.565Z,101982.34
2023-02-01T14:08:49.928Z,101978.44
2023-02-01T14:11:16.281Z,101975.31
2023-02-01T14:13:42.656Z,101980.78
2023-02-01T14:16:09.088Z,101983.09
2023-02-01T14:18:35.463Z,101973.38
2023-02-01T14:21:02.566Z,101980.78
2023-02-01T14:23:29.751Z,101978.38
2023-02-01T14:25:56.123Z,101973.75
2023-02-01T14:28:22.496Z,101971.81
2023-02-01T14:30:48.901Z,101972.59
2023-02-01T14:33:16.720Z,101977.66
2023-02-01T14:35:43.170Z,101975.34
2023-02-01T14:38:09.536Z,101988.19
2023-02-01T14:40:35.903Z,101979.63
2023-02-01T14:43:02.250Z,101980.06
2023-02-01T14:45:28.875Z,101974.22
2023-02-01T14:47:55.398Z,101978.06
2023-02-01T14:50:21.917Z,101984.66
2023-02-01T14:52:48.273Z,101980.78
2023-02-01T14:55:14.626Z,101984.69
2023-02-01T14:57:41.077Z,101989.75
2023-02-01T15:00:07.451Z,101987.00
2023-02-01T15:02:33.816Z,101994.00
2023-02-01T15:05:00.224Z,101986.22
2023-02-01T15:07:26.571Z,101983.88
2023-02-01T15:09:52.943Z,101986.59
2023-02-01T15:12:19.317Z,101991.25
2023-02-01T15:14:45.665Z,101981.56
2023-02-01T15:17:12.026Z,101976.09
2023-02-01T15:19:38.400Z,101972.63
2023-02-01T15:22:04.760Z,101974.56
2023-02-01T15:24:31.193Z,101974.56
2023-02-01T15:26:57.564Z,101972.63
2023-02-01T15:29:23.931Z,101976.91
2023-02-01T15:31:50.384Z,101985.06
2023-02-01T15:34:16.918Z,101984.28
2023-02-01T15:36:53.548Z,101977.66
2023-02-01T15:39:28.163Z,101994.00
2023-02-01T15:41:54.506Z,101989.31
2023-02-01T15:44:20.874Z,101989.31
2023-02-01T15:46:47.288Z,101990.13
2023-02-01T15:49:13.703Z,102000.22
2023-02-01T15:51:40.056Z,102001.78
2023-02-01T15:54:06.535Z,101999.88
2023-02-01T15:56:32.966Z,102002.25
2023-02-01T15:58:59.344Z,102005.72
2023-02-01T16:01:25.797Z,102005.72
2023-02-01T16:03:52.164Z,102010.41
2023-02-01T16:06:18.535Z,102017.34
2023-02-01T16:08:44.884Z,102012.28
2023-02-01T16:11:11.249Z,102010.75
2023-02-01T16:13:37.635Z,102014.25
2023-02-01T16:16:04.015Z,102008.41
2023-02-01T16:18:30.375Z,102006.50
2023-02-01T16:20:56.729Z,102016.19
2023-02-01T16:23:23.097Z,102011.13
2023-02-01T16:25:49.589Z,102009.63
2023-02-01T16:28:15.961Z,102015.41
2023-02-01T16:30:42.388Z,102026.28
2023-02-01T16:33:08.810Z,102024.31
2023-02-01T16:35:35.181Z,102021.22
2023-02-01T16:38:01.586Z,102023.13
2023-02-01T16:40:27.964Z,102027.03
2023-02-01T16:42:54.324Z,102029.75
2023-02-01T16:45:20.914Z,102023.53
2023-02-01T16:47:47.438Z,102031.34
2023-02-01T16:50:22.744Z,102041.78
2023-02-01T16:52:50.069Z,102039.06
2023-02-01T16:55:16.433Z,102044.53
2023-02-01T16:57:42.813Z,102036.81
2023-02-01T17:00:23.235Z,102044.53
2023-02-01T17:02:50.667Z,102044.16
2023-02-01T17:05:17.078Z,102048.44
2023-02-01T17:07:43.457Z,102049.97
2023-02-01T17:10:09.815Z,102052.69
2023-02-01T17:12:36.193Z,102051.91
2023-02-01T17:15:02.560Z,102051.91
2023-02-01T17:17:38.310Z,102056.19
2023-02-01T17:20:05.681Z,102051.16
2023-02-01T17:22:32.071Z,102062.41
2023-02-01T17:24:58.449Z,102064.38
2023-02-01T17:27:24.814Z,102063.59
2023-02-01T17:29:51.210Z,102068.25
2023-02-01T17:32:17.627Z,102063.59
2023-02-01T17:34:44.013Z,102068.66
2023-02-01T17:37:11.591Z,102070.94
2023-02-01T17:39:37.983Z,102076.78
2023-02-01T17:42:04.476Z,102067.81
2023-02-01T17:44:30.825Z,102082.19
2023-02-01T17:46:57.186Z,102078.69
2023-02-01T17:49:23.655Z,102078.72
2023-02-01T17:51:50.014Z,102075.97
2023-02-01T17:54:16.371Z,102077.13
2023-02-01T17:56:42.729Z,102081.78
2023-02-01T17:59:09.105Z,102080.63
2023-02-01T18:01:35.507Z,102072.47
2023-02-01T18:04:02.032Z,102080.25
2023-02-01T18:06:28.429Z,102079.47
2023-02-01T18:08:54.807Z,102084.13
2023-02-01T18:11:21.206Z,102084.91
2023-02-01T18:13:47.599Z,102082.19
2023-02-01T18:16:13.935Z,102079.91
2023-02-01T18:18:40.418Z,102076.78
2023-02-01T18:21:06.790Z,102072.13
2023-02-01T18:23:33.160Z,102080.28
2023-02-01T18:25:59.550Z,102071.34
2023-02-01T18:28:25.931Z,102070.94
2023-02-01T18:30:52.380Z,102072.13
2023-02-01T18:33:18.803Z,102073.28
2023-02-01T18:35:45.204Z,102076.38
2023-02-01T18:38:11.559Z,102078.69
2023-02-01T18:40:37.941Z,102084.13
2023-02-01T18:43:04.358Z,102081.44
2023-02-01T18:45:30.745Z,102086.09
2023-02-01T18:47:57.145Z,102083.34
2023-02-01T18:50:23.560Z,102095.41
2023-02-01T18:52:49.905Z,102092.69
2023-02-01T18:55:16.261Z,102096.59
2023-02-01T18:57:42.629Z,102090.72
2023-02-01T19:00:08.989Z,102098.13
2023-02-01T19:02:35.547Z,102096.94
2023-02-01T19:05:01.959Z,102102.38
2023-02-01T19:07:28.324Z,102105.91
2023-02-01T19:09:54.706Z,102091.94
2023-02-01T19:12:21.058Z,102091.16
2023-02-01T19:14:47.414Z,102091.94
2023-02-01T19:17:13.894Z,102094.28
2023-02-01T19:19:41.955Z,102086.09
2023-02-01T19:22:08.516Z,102097.75
2023-02-01T19:24:34.917Z,102093.06
2023-02-01T19:27:01.286Z,102102.41
2023-02-01T19:29:27.705Z,102106.25
2023-02-01T19:31:54.136Z,102097.38
2023-02-01T19:34:20.542Z,102096.97
2023-02-01T19:36:46.898Z,102095.81
2023-02-01T19:39:13.254Z,102106.69
2023-02-01T19:41:39.621Z,102100.13
2023-02-01T19:44:05.983Z,102100.50
2023-02-01T19:46:32.431Z,102106.31
2023-02-01T19:48:58.883Z,102100.47
2023-02-01T19:51:25.259Z,102108.66
2023-02-01T19:53:51.625Z,102104.78
2023-02-01T19:56:17.988Z,102102.06
2023-02-01T19:58:44.427Z,102120.63
2023-02-01T20:01:09.926Z,102114.06
2023-02-01T20:03:36.283Z,102113.28
2023-02-01T20:06:02.679Z,102117.13
2023-02-01T20:08:29.033Z,102115.19
2023-02-01T20:10:55.407Z,102115.97
2023-02-01T20:13:21.789Z,102117.13
2023-02-01T20:15:48.196Z,102114.41
2023-02-01T20:18:14.596Z,102122.97
2023-02-01T20:20:40.977Z,102122.56
2023-02-01T20:23:07.468Z,102122.97
2023-02-01T20:25:34.842Z,102119.84
2023-02-01T20:28:01.194Z,102129.97
2023-02-01T20:30:27.567Z,102124.53
2023-02-01T20:32:53.923Z,102131.13
2023-02-01T20:35:20.444Z,102129.22
2023-02-01T20:37:46.820Z,102123.00
2023-02-01T20:40:13.166Z,102128.03
2023-02-01T20:42:39.549Z,102123.78
2023-02-01T20:45:05.927Z,102128.00
2023-02-01T20:47:32.289Z,102129.97
2023-02-01T20:49:58.653Z,102130.38
2023-02-01T20:52:25.048Z,102136.94
2023-02-01T20:54:51.406Z,102144.31
2023-02-01T20:57:17.802Z,102135.03
2023-02-01T20:59:44.195Z,102139.69
2023-02-01T21:02:10.604Z,102128.03
2023-02-01T21:04:36.987Z,102128.78
2023-02-01T21:07:03.352Z,102133.88
2023-02-01T21:09:29.712Z,102132.28
2023-02-01T21:11:56.101Z,102133.44
2023-02-01T21:14:22.491Z,102138.50
2023-02-01T21:16:48.847Z,102142.38
2023-02-01T21:19:15.216Z,102138.88
2023-02-01T21:21:41.573Z,102139.31
2023-02-01T21:24:07.930Z,102136.16
2023-02-01T21:26:34.307Z,102137.72
2023-02-01T21:29:00.711Z,102133.84
2023-02-01T21:31:27.122Z,102137.72
2023-02-01T21:33:53.544Z,102138.50
2023-02-01T21:36:19.928Z,102141.56
2023-02-01T21:38:46.303Z,102135.41
2023-02-01T21:41:12.669Z,102137.34
2023-02-01T21:43:39.033Z,102135.00
2023-02-01T21:46:05.392Z,102129.97
2023-02-01T21:49:04.035Z,102125.69
2023-02-01T21:51:18.113Z,102128.78
2023-02-01T21:53:45.194Z,102115.19
2023-02-01T21:56:11.622Z,102117.13
2023-02-01T21:58:37.974Z,102115.22
2023-02-01T22:01:04.342Z,102124.56
2023-02-01T22:03:30.759Z,102115.19
2023-02-01T22:05:57.135Z,102124.56
2023-02-01T22:08:23.540Z,102127.25
2023-02-01T22:10:49.890Z,102129.22
2023-02-01T22:13:16.243Z,102117.91
2023-02-01T22:15:42.611Z,102112.50
2023-02-01T22:18:08.976Z,102125.31
2023-02-01T22:20:35.349Z,102122.22
2023-02-01T22:23:01.705Z,102126.47
2023-02-01T22:25:28.102Z,102124.91
2023-02-01T22:28:30.430Z,102128.44
2023-02-01T22:30:40.873Z,102135.78
2023-02-01T22:33:07.268Z,102129.16
2023-02-01T22:35:33.674Z,102139.66
2023-02-01T22:38:00.024Z,102131.13
2023-02-01T22:40:26.385Z,102128.75
2023-02-01T22:42:52.739Z,102122.16
2023-02-01T22:45:19.089Z,102123.72
2023-02-01T22:47:45.460Z,102127.59
2023-02-01T22:50:11.834Z,102124.88
2023-02-01T22:52:38.197Z,102122.94
2023-02-01T22:55:04.573Z,102130.34
2023-02-01T22:57:30.955Z,102124.13
2023-02-01T22:59:57.306Z,102127.25
2023-02-01T23:02:23.722Z,102126.84
2023-02-01T23:04:50.105Z,102122.56
2023-02-01T23:07:16.456Z,102130.34
2023-02-01T23:09:42.811Z,102135.41
2023-02-01T23:12:09.171Z,102134.63
2023-02-01T23:14:35.562Z,102143.16
2023-02-01T23:17:01.940Z,102139.28
2023-02-01T23:19:28.295Z,102137.31
2023-02-01T23:21:54.658Z,102138.50
2023-02-01T23:24:21.018Z,102156.78
2023-02-01T23:26:47.425Z,102150.53
2023-02-01T23:29:13.820Z,102160.25
2023-02-01T23:31:40.228Z,102169.56
2023-02-01T23:34:06.669Z,102165.69
2023-02-01T23:36:34.094Z,102164.50
2023-02-01T23:39:00.632Z,102162.97
2023-02-01T23:41:27.003Z,102154.81
2023-02-01T23:43:53.493Z,102157.53
2023-02-01T23:46:19.920Z,102160.25
2023-02-01T23:48:46.313Z,102161.00
2023-02-01T23:51:12.673Z,102165.28
2023-02-01T23:53:39.044Z,102166.81
2023-02-01T23:56:05.410Z,102169.19
2023-02-01T23:58:31.788Z,102169.94
